Time;durP1;ratioP1;P1;durP2;ratioP2;P2;SDS_P1;SDS_P2;PMS_P1;PMS_P2;Temp;Humidity;BMP_temperature;BMP_pressure;BME280_temperature;BME280_humidity;BME280_pressure;Samples;Min_cycle;Max_cycle;Signal;HPM_P1;HPM_P2
2022/03/29 00:01:04;;;;;;;10.40;4.75;;;7.10;99.90;;;;;;5035275;28;20123;-73
2022/03/29 00:03:30;;;;;;;7.55;4.05;;;7.00;99.90;;;;;;5034628;28;20033;-73
2022/03/29 00:05:56;;;;;;;10.07;3.88;;;7.00;99.90;;;;;;5032555;28;20037;-73
2022/03/29 00:08:21;;;;;;;8.93;4.03;;;7.10;99.90;;;;;;5041027;28;20075;-73
2022/03/29 00:10:47;;;;;;;7.80;3.58;;;7.00;99.90;;;;;;5039175;28;20380;-73
2022/03/29 00:13:13;;;;;;;7.93;3.70;;;7.00;99.90;;;;;;5057613;28;20091;-73
2022/03/29 00:15:39;;;;;;;6.55;3.72;;;7.00;99.90;;;;;;5021374;28;20083;-73
2022/03/29 00:18:05;;;;;;;8.32;4.45;;;7.00;99.90;;;;;;5031907;28;20085;-73
2022/03/29 00:20:30;;;;;;;12.15;4.55;;;7.00;99.90;;;;;;5033170;28;20128;-73
2022/03/29 00:22:56;;;;;;;7.70;3.60;;;7.10;99.90;;;;;;5026706;28;20099;-73
2022/03/29 00:25:22;;;;;;;9.27;4.25;;;7.10;99.90;;;;;;5033036;28;20037;-73
2022/03/29 00:27:49;;;;;;;8.73;4.22;;;7.00;99.90;;;;;;5058612;28;20044;-73
2022/03/29 00:30:16;;;;;;;9.38;4.50;;;7.00;99.90;;;;;;5027059;28;20041;-73
2022/03/29 00:32:45;;;;;;;8.55;3.47;;;7.00;99.90;;;;;;5039881;28;20048;-73
2022/03/29 00:35:12;;;;;;;10.55;4.10;;;7.00;99.90;;;;;;5032189;28;20036;-73
2022/03/29 00:37:38;;;;;;;9.23;4.20;;;7.00;99.90;;;;;;5060191;28;20033;-73
2022/03/29 00:40:05;;;;;;;10.20;4.70;;;7.00;99.90;;;;;;5051782;28;20033;-73
2022/03/29 00:42:31;;;;;;;10.13;4.57;;;7.00;99.90;;;;;;5033594;28;20041;-73
2022/03/29 00:44:57;;;;;;;11.50;4.57;;;7.00;99.90;;;;;;5028058;28;20660;-73
2022/03/29 00:47:23;;;;;;;11.05;5.10;;;7.00;99.90;;;;;;5043975;28;20483;-73
2022/03/29 00:49:49;;;;;;;9.23;4.18;;;7.00;99.90;;;;;;5061548;28;20397;-73
2022/03/29 00:52:16;;;;;;;7.32;3.67;;;7.00;99.90;;;;;;5031719;28;20043;-73
2022/03/29 00:54:42;;;;;;;10.30;4.35;;;7.00;99.90;;;;;;5039153;28;20345;-73
2022/03/29 00:57:09;;;;;;;8.77;4.57;;;7.00;99.90;;;;;;5030180;28;20044;-73
2022/03/29 00:59:35;;;;;;;10.27;4.82;;;7.00;99.90;;;;;;5061949;28;20578;-73
2022/03/29 01:02:01;;;;;;;8.65;4.07;;;7.00;99.90;;;;;;5043494;28;20112;-73
2022/03/29 01:04:27;;;;;;;6.93;4.53;;;7.00;99.90;;;;;;5046575;28;20059;-73
2022/03/29 01:06:58;;;;;;;8.70;4.00;;;7.00;99.90;;;;;;5035853;28;20040;-73
2022/03/29 01:09:29;;;;;;;8.55;4.65;;;6.90;99.90;;;;;;5035410;28;20047;-73
2022/03/29 01:11:55;;;;;;;7.20;3.50;;;7.00;99.90;;;;;;5035997;28;20055;-73
2022/03/29 01:14:22;;;;;;;9.02;4.63;;;6.90;99.90;;;;;;5047329;28;20045;-73
2022/03/29 01:19:33;;;;;;;12.70;5.15;;;6.90;99.90;;;;;;5047777;28;20041;-73
2022/03/29 01:22:00;;;;;;;10.25;4.38;;;6.90;99.90;;;;;;5031087;28;20049;-73
2022/03/29 01:24:27;;;;;;;11.55;4.40;;;7.00;99.90;;;;;;5063482;28;20406;-73
2022/03/29 01:26:56;;;;;;;9.57;4.22;;;7.00;99.90;;;;;;5036469;28;20120;-73
2022/03/29 01:29:22;;;;;;;15.43;4.88;;;7.00;99.90;;;;;;5039717;28;20041;-73
2022/03/29 01:31:49;;;;;;;10.88;4.82;;;7.00;99.90;;;;;;5033671;28;20086;-73
2022/03/29 01:34:16;;;;;;;9.40;4.22;;;7.00;99.90;;;;;;5029695;28;20079;-73
2022/03/29 01:36:41;;;;;;;11.02;4.75;;;7.00;99.90;;;;;;5034915;28;20044;-73
2022/03/29 01:39:07;;;;;;;12.80;5.40;;;7.00;99.90;;;;;;5037813;28;20045;-73
2022/03/29 01:41:32;;;;;;;11.00;3.72;;;7.00;99.90;;;;;;5031127;28;20458;-73
2022/03/29 01:43:59;;;;;;;10.45;4.65;;;7.00;99.90;;;;;;5030987;28;20098;-73
2022/03/29 01:46:25;;;;;;;9.20;4.28;;;7.00;99.90;;;;;;5033281;28;20054;-73
2022/03/29 01:48:51;;;;;;;9.55;4.60;;;7.00;99.90;;;;;;5062543;28;20545;-73
2022/03/29 01:51:17;;;;;;;10.57;3.95;;;7.00;99.90;;;;;;5045339;28;20045;-73
2022/03/29 01:53:46;;;;;;;9.10;4.88;;;7.00;99.90;;;;;;5042645;28;20041;-73
2022/03/29 01:56:11;;;;;;;14.48;5.15;;;7.10;99.90;;;;;;5034237;28;20033;-73
2022/03/29 01:58:37;;;;;;;11.00;5.30;;;7.00;99.90;;;;;;5044965;28;20048;-73
2022/03/29 02:01:03;;;;;;;13.80;4.70;;;7.00;99.90;;;;;;5024953;28;20048;-73
2022/03/29 02:03:28;;;;;;;9.27;4.25;;;7.10;99.90;;;;;;5057607;28;20037;-73
2022/03/29 02:05:54;;;;;;;10.77;4.78;;;7.10;99.90;;;;;;5049720;28;20045;-73
2022/03/29 02:08:20;;;;;;;9.70;4.82;;;7.10;99.90;;;;;;5030005;28;20548;-73
2022/03/29 02:10:45;;;;;;;11.50;4.35;;;7.10;99.90;;;;;;5045489;28;20498;-73
2022/03/29 02:13:11;;;;;;;7.18;4.10;;;7.10;99.90;;;;;;5028789;28;20041;-73
2022/03/29 02:15:38;;;;;;;12.48;4.47;;;7.10;99.90;;;;;;5041479;28;20040;-73
2022/03/29 02:18:05;;;;;;;10.32;4.43;;;7.10;99.90;;;;;;5016883;28;20087;-73
2022/03/29 02:20:31;;;;;;;9.43;4.47;;;7.10;99.90;;;;;;5047227;28;20065;-73
2022/03/29 02:23:07;;;;;;;6.82;3.97;;;7.10;99.90;;;;;;5022593;28;20781;-73
2022/03/29 02:25:35;;;;;;;9.90;4.22;;;7.20;99.90;;;;;;5044169;28;20491;-73
2022/03/29 02:28:02;;;;;;;9.07;4.32;;;7.20;99.90;;;;;;5047384;28;20053;-74
2022/03/29 02:30:28;;;;;;;9.13;4.45;;;7.10;99.90;;;;;;5042066;28;20040;-73
2022/03/29 02:32:53;;;;;;;10.70;5.20;;;7.10;99.90;;;;;;5042806;28;20037;-73
2022/03/29 02:35:19;;;;;;;9.60;5.00;;;7.10;99.90;;;;;;5051594;28;20040;-73
2022/03/29 02:37:45;;;;;;;10.07;4.47;;;7.10;99.90;;;;;;5028087;28;20048;-74
2022/03/29 02:40:13;;;;;;;11.73;4.75;;;7.10;99.90;;;;;;5036155;28;20499;-73
2022/03/29 02:42:44;;;;;;;10.50;5.43;;;7.10;99.90;;;;;;5037559;28;20539;-74
2022/03/29 02:45:15;;;;;;;10.20;5.15;;;7.10;99.90;;;;;;5036650;28;20448;-73
2022/03/29 02:47:45;;;;;;;8.52;4.40;;;7.10;99.90;;;;;;5042893;28;20055;-73
2022/03/29 02:50:12;;;;;;;13.50;4.68;;;7.10;99.90;;;;;;5029289;28;20041;-73
2022/03/29 02:52:49;;;;;;;9.20;4.28;;;7.10;99.90;;;;;;5040115;28;20045;-73
2022/03/29 02:55:16;;;;;;;9.70;4.53;;;7.10;99.90;;;;;;5035647;28;20048;-73
2022/03/29 02:57:43;;;;;;;9.40;4.47;;;7.10;99.90;;;;;;5034568;28;20064;-73
2022/03/29 03:00:11;;;;;;;8.27;4.03;;;7.10;99.90;;;;;;5031751;28;20041;-73
2022/03/29 03:02:37;;;;;;;9.65;3.97;;;7.10;99.90;;;;;;5047747;28;20037;-73
2022/03/29 03:05:03;;;;;;;8.57;4.97;;;7.10;99.90;;;;;;5054156;28;20044;-73
2022/03/29 03:07:29;;;;;;;10.05;4.50;;;7.10;99.90;;;;;;5033340;28;20124;-73
2022/03/29 03:09:55;;;;;;;12.52;5.82;;;7.10;99.90;;;;;;5052614;28;20049;-73
2022/03/29 03:12:20;;;;;;;11.95;5.05;;;7.10;99.90;;;;;;5046934;28;20417;-73
2022/03/29 03:14:47;;;;;;;7.03;3.85;;;7.10;99.90;;;;;;5043264;28;20064;-73
2022/03/29 03:17:13;;;;;;;8.75;4.22;;;7.10;99.90;;;;;;5043365;28;20578;-73
2022/03/29 03:19:38;;;;;;;13.82;5.90;;;7.10;99.90;;;;;;5040270;28;20125;-73
2022/03/29 03:22:04;;;;;;;8.18;4.55;;;7.10;99.90;;;;;;5033765;28;20499;-73
2022/03/29 03:24:30;;;;;;;9.00;4.07;;;7.00;99.90;;;;;;5047614;28;20049;-73
2022/03/29 03:26:55;;;;;;;14.30;5.55;;;7.10;99.90;;;;;;5033461;28;20037;-73
2022/03/29 03:29:21;;;;;;;9.85;4.55;;;7.10;99.90;;;;;;5037630;28;20044;-73
2022/03/29 03:31:47;;;;;;;7.18;3.53;;;7.00;99.90;;;;;;5026801;28;20068;-73
2022/03/29 03:34:12;;;;;;;9.80;3.95;;;7.00;99.90;;;;;;5034279;28;20044;-73
2022/03/29 03:36:38;;;;;;;11.35;4.60;;;7.00;99.90;;;;;;5029680;28;20399;-73
2022/03/29 03:39:04;;;;;;;9.65;4.32;;;7.00;99.90;;;;;;5046022;28;20422;-73
2022/03/29 03:41:29;;;;;;;12.73;4.75;;;7.10;99.90;;;;;;5041241;28;20140;-73
2022/03/29 03:43:55;;;;;;;9.50;5.35;;;7.00;99.90;;;;;;5029140;28;20931;-73
2022/03/29 03:46:20;;;;;;;13.65;5.20;;;7.00;99.90;;;;;;5029715;28;20785;-73
2022/03/29 03:48:46;;;;;;;9.55;5.28;;;7.10;99.90;;;;;;5052579;28;20463;-73
2022/03/29 03:51:11;;;;;;;10.75;4.80;;;7.10;99.90;;;;;;5027957;28;20131;-73
2022/03/29 03:53:37;;;;;;;11.77;5.00;;;7.10;99.90;;;;;;5039502;28;20072;-73
2022/03/29 03:56:03;;;;;;;14.50;5.90;;;7.00;99.90;;;;;;5026245;28;20243;-73
2022/03/29 03:58:29;;;;;;;9.35;4.07;;;7.00;99.90;;;;;;5034823;28;20032;-73
2022/03/29 04:00:54;;;;;;;9.73;3.80;;;7.00;99.90;;;;;;5026549;28;20677;-73
2022/03/29 04:03:20;;;;;;;10.07;5.55;;;7.00;99.90;;;;;;5014951;28;20120;-73
2022/03/29 04:05:46;;;;;;;8.02;4.20;;;7.00;99.90;;;;;;5043720;28;20040;-73
2022/03/29 04:08:12;;;;;;;11.60;4.60;;;7.00;99.90;;;;;;5032380;28;20049;-73
2022/03/29 04:10:39;;;;;;;9.60;4.20;;;7.00;99.90;;;;;;5032474;28;20389;-73
2022/03/29 04:13:05;;;;;;;9.93;4.72;;;7.00;99.90;;;;;;5044840;28;20486;-73
2022/03/29 04:15:31;;;;;;;13.23;5.05;;;7.00;99.90;;;;;;5027528;28;20029;-73
2022/03/29 04:17:57;;;;;;;8.00;4.18;;;7.00;99.90;;;;;;5032133;28;20036;-73
2022/03/29 04:20:22;;;;;;;10.20;4.78;;;7.00;99.90;;;;;;5042540;28;20129;-73
2022/03/29 04:22:48;;;;;;;8.60;4.60;;;7.00;99.90;;;;;;5042949;28;20135;-73
2022/03/29 04:25:13;;;;;;;10.02;5.78;;;7.00;99.90;;;;;;5060718;28;20747;-73
2022/03/29 04:27:39;;;;;;;12.65;5.10;;;7.00;99.90;;;;;;5027454;28;20051;-73
2022/03/29 04:30:05;;;;;;;10.45;4.68;;;6.90;99.90;;;;;;5041015;28;20388;-73
2022/03/29 04:32:31;;;;;;;10.10;4.85;;;6.90;99.90;;;;;;5037210;28;20037;-73
2022/03/29 04:34:57;;;;;;;12.10;5.57;;;7.00;99.90;;;;;;5041621;28;20041;-73
2022/03/29 04:37:24;;;;;;;16.58;5.93;;;7.00;99.90;;;;;;5031939;28;20531;-73
2022/03/29 04:39:50;;;;;;;12.48;5.15;;;7.00;99.90;;;;;;5038071;28;20052;-73
2022/03/29 04:42:18;;;;;;;10.00;4.53;;;7.00;99.90;;;;;;5048869;28;20059;-73
2022/03/29 04:44:44;;;;;;;11.93;4.85;;;7.00;99.90;;;;;;5046793;28;20124;-73
2022/03/29 04:47:09;;;;;;;13.38;4.65;;;7.00;99.90;;;;;;5026385;28;20144;-73
2022/03/29 04:49:35;;;;;;;13.10;4.35;;;7.00;99.90;;;;;;5037633;28;20068;-73
2022/03/29 04:52:01;;;;;;;9.18;4.47;;;7.00;99.90;;;;;;5028631;28;20067;-73
2022/03/29 04:54:27;;;;;;;12.75;5.10;;;7.00;99.90;;;;;;5044155;28;20116;-73
2022/03/29 04:56:53;;;;;;;12.48;5.30;;;7.00;99.90;;;;;;5035684;28;20635;-73
2022/03/29 04:59:18;;;;;;;12.95;4.65;;;7.00;99.90;;;;;;5028650;28;20042;-73
2022/03/29 05:01:44;;;;;;;13.20;5.72;;;7.00;99.90;;;;;;5043165;28;20033;-73
2022/03/29 05:04:09;;;;;;;10.98;5.68;;;7.00;99.90;;;;;;5044433;28;20048;-73
2022/03/29 05:06:35;;;;;;;15.13;5.53;;;7.00;99.90;;;;;;5043864;28;20061;-73
2022/03/29 05:09:01;;;;;;;10.77;5.07;;;7.00;99.90;;;;;;5035171;28;20653;-73
2022/03/29 05:11:27;;;;;;;12.55;4.95;;;7.00;99.90;;;;;;5022203;28;20040;-73
2022/03/29 05:13:52;;;;;;;15.27;4.78;;;7.00;99.90;;;;;;5029887;28;20030;-73
2022/03/29 05:16:18;;;;;;;10.95;4.47;;;6.90;99.90;;;;;;5037369;28;20552;-73
2022/03/29 05:18:44;;;;;;;9.77;4.85;;;6.90;99.90;;;;;;5033939;28;20061;-73
2022/03/29 05:21:10;;;;;;;10.00;5.53;;;6.90;99.90;;;;;;5055629;28;20136;-73
2022/03/29 05:23:36;;;;;;;11.93;5.43;;;6.90;99.90;;;;;;5040289;28;20152;-73
2022/03/29 05:26:01;;;;;;;13.75;4.55;;;6.90;99.90;;;;;;5040436;28;20041;-73
2022/03/29 05:28:27;;;;;;;12.18;5.30;;;6.90;99.90;;;;;;5026453;28;20050;-73
2022/03/29 05:30:53;;;;;;;16.73;6.10;;;6.90;99.90;;;;;;5043390;28;20033;-73
2022/03/29 05:33:18;;;;;;;12.73;5.15;;;6.90;99.90;;;;;;5025859;28;20507;-73
2022/03/29 05:35:44;;;;;;;12.55;5.47;;;6.90;99.90;;;;;;5040833;28;20522;-73
2022/03/29 05:38:10;;;;;;;13.20;5.15;;;6.90;99.90;;;;;;5037455;28;20065;-73
2022/03/29 05:40:36;;;;;;;11.73;5.05;;;6.90;99.90;;;;;;5034961;28;20103;-73
2022/03/29 05:43:01;;;;;;;16.48;5.32;;;6.90;99.90;;;;;;5033925;28;20045;-73
2022/03/29 05:45:29;;;;;;;12.32;4.65;;;6.90;99.90;;;;;;5034847;28;20083;-73
2022/03/29 05:50:39;;;;;;;9.85;5.03;;;6.90;99.90;;;;;;5055278;28;20056;-73
2022/03/29 05:53:05;;;;;;;14.60;5.45;;;6.90;99.90;;;;;;5035618;28;20041;-73
2022/03/29 05:55:30;;;;;;;12.95;6.03;;;6.90;99.90;;;;;;5020995;28;20029;-73
2022/03/29 05:57:57;;;;;;;11.05;5.78;;;6.90;99.90;;;;;;5053277;28;20042;-73
2022/03/29 06:00:23;;;;;;;12.93;4.25;;;6.90;99.90;;;;;;5049837;28;20418;-73
2022/03/29 06:02:51;;;;;;;17.20;5.18;;;6.90;99.90;;;;;;5041067;28;20455;-73
2022/03/29 06:05:16;;;;;;;14.40;5.22;;;6.90;99.90;;;;;;5038725;28;20072;-73
2022/03/29 06:07:42;;;;;;;12.10;4.82;;;6.90;99.90;;;;;;5046967;28;20462;-73
2022/03/29 06:10:08;;;;;;;13.25;4.80;;;6.90;99.90;;;;;;5024958;28;20037;-73
2022/03/29 06:12:36;;;;;;;16.50;6.15;;;6.90;99.90;;;;;;5044036;28;20037;-73
2022/03/29 06:15:04;;;;;;;14.35;5.38;;;6.90;99.90;;;;;;5044546;28;20075;-73
2022/03/29 06:17:30;;;;;;;10.95;5.97;;;6.90;99.90;;;;;;5035021;28;20091;-73
2022/03/29 06:19:55;;;;;;;15.68;6.05;;;6.90;99.90;;;;;;5038773;28;20050;-73
2022/03/29 06:22:21;;;;;;;14.00;6.00;;;7.00;99.90;;;;;;5044272;28;20120;-73
2022/03/29 06:24:47;;;;;;;11.95;6.38;;;6.90;99.90;;;;;;5045407;28;20517;-73
2022/03/29 06:27:13;;;;;;;11.60;5.45;;;6.90;99.90;;;;;;5040588;28;20040;-73
2022/03/29 06:29:39;;;;;;;15.00;5.90;;;7.00;99.90;;;;;;5035780;28;20052;-73
2022/03/29 06:32:05;;;;;;;11.32;5.25;;;7.00;99.90;;;;;;5041393;28;20265;-73
2022/03/29 06:34:30;;;;;;;9.45;5.38;;;7.00;99.90;;;;;;5045870;28;20427;-73
2022/03/29 06:36:57;;;;;;;12.80;5.68;;;7.00;99.90;;;;;;5038075;28;20044;-73
2022/03/29 06:39:22;;;;;;;12.02;5.15;;;7.00;99.90;;;;;;5038487;28;20049;-73
2022/03/29 06:41:48;;;;;;;12.13;5.07;;;7.10;99.90;;;;;;5051824;28;20045;-73
2022/03/29 06:44:13;;;;;;;10.68;5.05;;;7.10;99.90;;;;;;5047851;28;20045;-73
2022/03/29 06:46:39;;;;;;;12.00;4.30;;;7.10;99.90;;;;;;5026893;28;20069;-73
2022/03/29 06:49:06;;;;;;;12.55;5.57;;;7.10;99.90;;;;;;5038725;28;20110;-73
2022/03/29 06:51:32;;;;;;;13.10;5.50;;;7.10;99.90;;;;;;5032966;28;20094;-74
2022/03/29 06:53:59;;;;;;;13.50;5.43;;;7.10;99.90;;;;;;5036667;28;20568;-73
2022/03/29 06:56:26;;;;;;;11.60;5.32;;;7.10;99.90;;;;;;5044740;28;20489;-73
2022/03/29 06:58:51;;;;;;;11.90;4.55;;;7.10;99.90;;;;;;5054725;28;20110;-73
2022/03/29 07:01:17;;;;;;;9.52;4.80;;;7.10;99.90;;;;;;5062121;28;20080;-73
2022/03/29 07:03:43;;;;;;;9.75;4.53;;;7.10;99.90;;;;;;5016246;28;20085;-73
2022/03/29 07:06:08;;;;;;;8.40;4.75;;;7.20;99.90;;;;;;5042666;28;20036;-73
2022/03/29 07:08:34;;;;;;;11.48;5.15;;;7.20;99.90;;;;;;5042900;28;20147;-74
2022/03/29 07:11:16;;;;;;;10.50;5.32;;;7.30;99.90;;;;;;5026503;28;20470;-73
2022/03/29 07:13:44;;;;;;;14.10;6.20;;;7.20;99.90;;;;;;5025079;28;20529;-74
2022/03/29 07:16:10;;;;;;;11.32;5.00;;;7.30;99.90;;;;;;5039813;28;20131;-73
2022/03/29 07:18:36;;;;;;;16.40;5.80;;;7.30;99.90;;;;;;5043653;28;20037;-74
2022/03/29 07:21:02;;;;;;;12.68;5.50;;;7.30;99.90;;;;;;5043001;28;20113;-73
2022/03/29 07:23:29;;;;;;;13.30;5.90;;;7.30;99.90;;;;;;5036486;28;20570;-73
2022/03/29 07:25:56;;;;;;;13.27;5.30;;;7.30;99.90;;;;;;5040162;28;20037;-73
2022/03/29 07:28:23;;;;;;;15.20;5.43;;;7.30;99.90;;;;;;5042939;28;20117;-73
2022/03/29 07:30:49;;;;;;;12.15;5.43;;;7.40;99.90;;;;;;5041561;28;20436;-73
2022/03/29 07:33:17;;;;;;;12.77;4.25;;;7.30;99.90;;;;;;5021021;28;20100;-73
2022/03/29 07:35:44;;;;;;;10.90;5.38;;;7.30;99.90;;;;;;5015177;28;20068;-73
2022/03/29 07:38:10;;;;;;;9.52;4.97;;;7.40;99.90;;;;;;5044954;28;20083;-73
2022/03/29 07:40:37;;;;;;;12.43;5.75;;;7.40;99.90;;;;;;5038624;28;20036;-73
2022/03/29 07:43:04;;;;;;;8.48;4.25;;;7.40;99.90;;;;;;5034096;28;20055;-73
2022/03/29 07:45:30;;;;;;;14.35;5.22;;;7.40;99.90;;;;;;5044177;28;20103;-73
2022/03/29 07:47:56;;;;;;;11.68;5.40;;;7.50;99.90;;;;;;5043004;28;20087;-73
2022/03/29 07:50:24;;;;;;;13.93;4.93;;;7.40;99.90;;;;;;5040548;28;20445;-73
2022/03/29 07:52:50;;;;;;;16.75;6.05;;;7.50;99.90;;;;;;5033558;28;20040;-73
2022/03/29 07:55:16;;;;;;;13.38;6.25;;;7.50;99.90;;;;;;5022702;28;20029;-73
2022/03/29 07:57:43;;;;;;;10.75;5.05;;;7.50;99.90;;;;;;5032178;28;20053;-73
2022/03/29 08:02:58;;;;;;;11.13;4.88;;;7.50;99.90;;;;;;5042962;28;20049;-73
2022/03/29 08:05:24;;;;;;;15.48;5.70;;;7.50;99.90;;;;;;5053087;28;20041;-73
2022/03/29 08:07:50;;;;;;;10.32;4.68;;;7.50;99.90;;;;;;5048801;28;20079;-73
2022/03/29 08:10:17;;;;;;;14.32;6.05;;;7.50;99.90;;;;;;5038546;28;20045;-73
2022/03/29 08:12:43;;;;;;;9.85;4.43;;;7.60;99.90;;;;;;5039666;28;20056;-74
2022/03/29 08:15:10;;;;;;;14.93;5.72;;;7.60;99.90;;;;;;5028372;28;20068;-73
2022/03/29 08:17:37;;;;;;;10.52;4.90;;;7.60;99.90;;;;;;5039560;28;20044;-74
2022/03/29 08:20:05;;;;;;;12.10;5.15;;;7.60;99.90;;;;;;5048499;28;20182;-73
2022/03/29 08:22:31;;;;;;;10.40;5.03;;;7.60;99.90;;;;;;5030683;28;20050;-73
2022/03/29 08:24:56;;;;;;;11.32;5.45;;;7.70;99.90;;;;;;5048400;28;20056;-73
2022/03/29 08:27:22;;;;;;;14.95;5.15;;;7.70;99.90;;;;;;5037206;28;20474;-73
2022/03/29 08:29:47;;;;;;;10.68;5.10;;;7.70;99.90;;;;;;5030974;28;20045;-73
2022/03/29 08:32:13;;;;;;;11.55;5.63;;;7.70;99.90;;;;;;5032841;28;20036;-73
2022/03/29 08:34:39;;;;;;;9.00;4.30;;;7.80;99.90;;;;;;5038736;28;20032;-73
2022/03/29 08:37:05;;;;;;;14.52;5.07;;;7.80;99.90;;;;;;5035149;28;20142;-73
2022/03/29 08:39:31;;;;;;;10.50;4.95;;;7.90;99.90;;;;;;5038622;28;20604;-73
2022/03/29 08:42:07;;;;;;;15.38;5.22;;;7.90;99.90;;;;;;5038615;28;20124;-73
2022/03/29 08:44:33;;;;;;;13.32;5.20;;;7.90;99.90;;;;;;5051909;28;20065;-72
2022/03/29 08:47:00;;;;;;;18.75;5.20;;;7.90;99.90;;;;;;5033406;28;20090;-72
2022/03/29 08:49:27;;;;;;;11.25;4.30;;;7.90;99.90;;;;;;5019834;28;20080;-74
2022/03/29 08:51:53;;;;;;;9.15;4.28;;;8.00;99.90;;;;;;5034156;28;20124;-72
2022/03/29 08:54:20;;;;;;;11.25;4.82;;;8.00;99.90;;;;;;5034591;28;20033;-73
2022/03/29 08:56:45;;;;;;;9.73;4.55;;;8.00;99.90;;;;;;5037775;28;20498;-72
2022/03/29 08:59:11;;;;;;;13.48;4.97;;;8.10;99.90;;;;;;5024503;28;20085;-73
2022/03/29 09:01:37;;;;;;;13.35;5.38;;;8.10;99.90;;;;;;5030266;28;20041;-73
2022/03/29 09:04:11;;;;;;;11.57;4.30;;;8.10;99.90;;;;;;5033450;28;20037;-73
2022/03/29 09:06:56;;;;;;;12.95;4.78;;;8.20;99.90;;;;;;5038281;28;20051;-72
2022/03/29 09:09:45;;;;;;;10.63;4.47;;;8.20;99.90;;;;;;5049403;28;20034;-73
2022/03/29 09:12:13;;;;;;;10.07;4.93;;;8.30;99.90;;;;;;5032466;28;20044;-74
2022/03/29 09:14:57;;;;;;;15.25;5.07;;;8.40;99.90;;;;;;5031391;28;20045;-73
2022/03/29 09:17:33;;;;;;;8.75;4.72;;;8.40;99.90;;;;;;5036305;28;20062;-73
2022/03/29 09:20:05;;;;;;;10.15;5.22;;;8.50;99.90;;;;;;5035848;28;20045;-73
2022/03/29 09:22:44;;;;;;;11.43;5.80;;;8.50;99.90;;;;;;5030828;28;20049;-73
2022/03/29 09:25:15;;;;;;;11.77;5.35;;;8.60;99.90;;;;;;5029449;28;20052;-73
2022/03/29 09:28:10;;;;;;;10.68;4.97;;;8.60;99.90;;;;;;5033049;28;20116;-73
2022/03/29 09:30:38;;;;;;;11.68;5.07;;;8.60;99.90;;;;;;5024211;28;20049;-72
2022/03/29 09:33:10;;;;;;;13.93;4.65;;;8.50;99.90;;;;;;5057691;28;20080;-72
2022/03/29 09:36:10;;;;;;;10.05;5.00;;;8.60;99.90;;;;;;5039817;28;20059;-73
2022/03/29 09:38:41;;;;;;;11.25;5.20;;;8.60;99.90;;;;;;5022214;28;20064;-72
2022/03/29 09:41:26;;;;;;;9.05;4.80;;;8.50;99.90;;;;;;5033807;28;20042;-72
2022/03/29 09:44:07;;;;;;;13.45;5.10;;;8.50;99.90;;;;;;5042404;28;20041;-73
2022/03/29 09:46:52;;;;;;;12.43;4.82;;;8.50;99.90;;;;;;5034356;28;20064;-73
2022/03/29 09:49:20;;;;;;;8.02;4.85;;;8.50;99.90;;;;;;5039423;28;20033;-73
2022/03/29 09:51:46;;;;;;;9.55;4.53;;;8.50;99.90;;;;;;5041528;28;20064;-72
2022/03/29 09:54:12;;;;;;;15.90;6.35;;;8.60;99.90;;;;;;5055731;28;20127;-73
2022/03/29 09:56:38;;;;;;;10.95;4.60;;;8.50;99.90;;;;;;5047288;28;20399;-72
2022/03/29 09:59:16;;;;;;;13.70;5.80;;;8.60;99.90;;;;;;5044542;28;20198;-73
2022/03/29 10:01:55;;;;;;;12.05;5.22;;;8.60;99.90;;;;;;5044744;28;20037;-73
2022/03/29 10:04:22;;;;;;;11.52;5.55;;;8.60;99.90;;;;;;5041850;28;20046;-72
2022/03/29 10:06:52;;;;;;;13.43;6.03;;;8.60;99.90;;;;;;5040254;28;20033;-72
2022/03/29 10:09:27;;;;;;;8.93;4.15;;;8.70;99.90;;;;;;5047016;28;20040;-73
2022/03/29 10:12:04;;;;;;;11.13;5.47;;;8.70;99.90;;;;;;5040519;28;20048;-72
2022/03/29 10:14:31;;;;;;;15.32;4.60;;;8.70;99.90;;;;;;5044093;28;20092;-73
2022/03/29 10:16:58;;;;;;;10.70;5.00;;;8.70;99.90;;;;;;5056577;28;20048;-72
2022/03/29 10:19:24;;;;;;;7.70;4.07;;;8.80;99.90;;;;;;5025302;28;20044;-73
2022/03/29 10:21:53;;;;;;;9.35;5.00;;;8.80;99.90;;;;;;5044881;28;20052;-72
2022/03/29 10:24:19;;;;;;;22.30;5.88;;;8.80;99.90;;;;;;5044125;28;20230;-73
2022/03/29 10:26:48;;;;;;;9.68;4.57;;;8.80;99.90;;;;;;5026048;28;20045;-73
2022/03/29 10:29:14;;;;;;;12.85;5.43;;;8.90;99.90;;;;;;5064011;28;20198;-73
2022/03/29 10:32:00;;;;;;;18.30;6.13;;;9.00;99.90;;;;;;5055523;28;20448;-73
2022/03/29 10:34:30;;;;;;;9.70;4.80;;;9.10;99.90;;;;;;5052175;28;20179;-73
2022/03/29 10:37:12;;;;;;;9.32;5.10;;;9.20;99.90;;;;;;5026081;28;20049;-73
2022/03/29 10:39:54;;;;;;;14.82;5.10;;;9.30;99.90;;;;;;5036382;28;20040;-72
2022/03/29 10:42:32;;;;;;;10.82;4.60;;;9.30;99.90;;;;;;5037779;28;20055;-72
2022/03/29 10:45:06;;;;;;;16.33;5.43;;;9.30;99.90;;;;;;5024522;28;20051;-72
2022/03/29 10:47:33;;;;;;;9.68;5.00;;;9.30;99.90;;;;;;5036621;28;20029;-72
2022/03/29 10:49:59;;;;;;;11.80;4.85;;;9.30;99.90;;;;;;5042355;28;20566;-72
2022/03/29 10:52:25;;;;;;;18.33;5.38;;;9.40;99.90;;;;;;5039836;28;20605;-73
2022/03/29 10:54:52;;;;;;;10.98;5.40;;;9.40;99.90;;;;;;5068767;28;20037;-72
2022/03/29 10:57:28;;;;;;;10.38;4.95;;;9.50;99.90;;;;;;5057102;28;20049;-72
2022/03/29 11:00:12;;;;;;;14.07;5.15;;;9.60;99.90;;;;;;5041857;28;20060;-75
2022/03/29 11:02:59;;;;;;;12.57;6.10;;;9.60;99.90;;;;;;5056128;28;20049;-72
2022/03/29 11:05:24;;;;;;;13.18;5.75;;;9.60;99.90;;;;;;5041909;28;20079;-72
2022/03/29 11:07:53;;;;;;;9.93;4.47;;;9.60;99.90;;;;;;5029378;28;20077;-72
2022/03/29 11:10:21;;;;;;;13.32;5.80;;;9.60;99.90;;;;;;5043646;28;20120;-72
2022/03/29 11:12:54;;;;;;;8.73;4.18;;;9.60;99.90;;;;;;5035371;28;20498;-72
2022/03/29 11:15:25;;;;;;;9.48;4.75;;;9.70;99.90;;;;;;5023609;28;20044;-72
2022/03/29 11:17:56;;;;;;;8.85;4.10;;;9.70;99.90;;;;;;5029414;28;20056;-72
2022/03/29 11:20:38;;;;;;;9.95;5.18;;;9.70;99.90;;;;;;5047563;28;20045;-72
2022/03/29 11:23:10;;;;;;;10.45;4.82;;;9.70;99.90;;;;;;5069848;28;20048;-72
2022/03/29 11:25:45;;;;;;;10.63;4.53;;;9.70;99.90;;;;;;5046925;28;20037;-72
2022/03/29 11:28:14;;;;;;;10.65;4.85;;;9.70;99.90;;;;;;5036830;28;20059;-72
2022/03/29 11:30:41;;;;;;;10.82;5.18;;;9.70;99.90;;;;;;5040351;28;20036;-72
2022/03/29 11:33:08;;;;;;;9.70;4.32;;;9.70;99.90;;;;;;5043351;28;20052;-72
2022/03/29 11:35:35;;;;;;;9.18;4.55;;;9.80;99.90;;;;;;5047265;28;20034;-72
2022/03/29 11:38:15;;;;;;;9.25;3.85;;;9.80;99.90;;;;;;5051575;28;20116;-72
2022/03/29 11:40:42;;;;;;;9.10;4.07;;;9.80;99.90;;;;;;5059931;28;20037;-72
2022/03/29 11:43:13;;;;;;;18.25;5.50;;;9.80;99.90;;;;;;5042418;28;20044;-72
2022/03/29 11:45:45;;;;;;;8.77;4.00;;;9.70;99.90;;;;;;5024102;28;20033;-72
2022/03/29 11:48:13;;;;;;;11.70;4.50;;;9.70;99.90;;;;;;5038738;28;20037;-72
2022/03/29 11:50:53;;;;;;;8.32;4.22;;;9.70;99.90;;;;;;5040678;28;20049;-72
2022/03/29 11:53:35;;;;;;;8.55;4.05;;;9.70;99.90;;;;;;5026359;28;20048;-72
2022/03/29 11:56:03;;;;;;;10.45;3.20;;;9.80;99.90;;;;;;5042662;28;20033;-72
2022/03/29 11:58:50;;;;;;;11.32;4.20;;;9.90;99.90;;;;;;5041343;28;20037;-72
2022/03/29 12:01:15;;;;;;;;;;;10.00;99.90;;;;;;5038172;28;20095;-72
2022/03/29 12:03:46;;;;;;;12.38;4.78;;;10.00;99.90;;;;;;5040626;28;19924;-72
2022/03/29 12:06:17;;;;;;;8.15;3.72;;;10.10;99.90;;;;;;5027062;28;20621;-72
2022/03/29 12:08:49;;;;;;;10.15;4.03;;;10.10;99.90;;;;;;5055942;28;20049;-72
2022/03/29 12:11:34;;;;;;;10.30;3.72;;;10.20;99.90;;;;;;5040920;28;20059;-72
2022/03/29 12:14:12;;;;;;;11.80;4.27;;;10.20;99.90;;;;;;5024173;28;20070;-72
2022/03/29 12:16:39;;;;;;;10.85;3.70;;;10.20;99.90;;;;;;5037101;28;20422;-72
2022/03/29 12:19:14;;;;;;;10.70;2.97;;;10.20;99.90;;;;;;5054810;28;20044;-72
2022/03/29 12:21:44;;;;;;;8.40;3.50;;;10.20;99.90;;;;;;5039191;28;20056;-72
2022/03/29 12:24:11;;;;;;;9.85;3.25;;;10.20;99.90;;;;;;5038795;28;20104;-72
2022/03/29 12:26:42;;;;;;;10.20;3.65;;;10.20;99.90;;;;;;5040434;28;20040;-72
2022/03/29 12:29:14;;;;;;;6.65;3.03;;;10.10;99.90;;;;;;5038009;28;20060;-73
2022/03/29 12:31:40;;;;;;;9.02;3.08;;;10.10;99.90;;;;;;5034781;28;20108;-72
2022/03/29 12:34:08;;;;;;;7.57;3.28;;;10.10;99.90;;;;;;5044296;28;20068;-72
2022/03/29 12:36:37;;;;;;;10.13;3.33;;;10.10;99.90;;;;;;5054361;28;20494;-72
2022/03/29 12:39:05;;;;;;;7.75;2.78;;;10.10;99.90;;;;;;5057691;28;20507;-72
2022/03/29 12:41:51;;;;;;;8.32;3.38;;;10.20;99.90;;;;;;5029754;28;20128;-72
2022/03/29 12:44:38;;;;;;;9.23;3.13;;;10.30;99.90;;;;;;5014246;28;20075;-73
2022/03/29 12:47:06;;;;;;;7.53;3.05;;;10.30;99.90;;;;;;5041537;28;20041;-73
2022/03/29 12:49:33;;;;;;;9.07;3.42;;;10.30;99.90;;;;;;5044442;28;20152;-72
2022/03/29 12:52:08;;;;;;;9.70;3.40;;;10.30;99.90;;;;;;5054060;28;20128;-72
2022/03/29 12:54:48;;;;;;;9.18;3.30;;;10.30;99.90;;;;;;5050848;28;20128;-72
2022/03/29 12:57:15;;;;;;;9.32;2.88;;;10.30;99.80;;;;;;5042278;28;20029;-72
2022/03/29 12:59:43;;;;;;;8.32;3.70;;;10.20;99.90;;;;;;5044954;28;20037;-72
2022/03/29 13:02:17;;;;;;;5.97;2.95;;;10.30;99.90;;;;;;5022939;28;20118;-72
2022/03/29 13:04:58;;;;;;;9.90;3.70;;;10.30;99.90;;;;;;5047284;28;20102;-72